Weather observations for the past three days for
Bryan Coulter Field
Metric (Imperial)
Date Time (cdt) Wind (kph) Vis. (km) Weather Sky Cond. Temperature (ºC) Relative Humidity Wind Chill (°C) Heat Index (°C) Pressure Precipitation (cm)
Air Dwpt 6 hour altimeter (cm) sea level (mb) 1 hr 3 hr 6 hr
Max. Min.
07 13:15 Calm 16.09 Fair CLR 20.2 12.4 61% 76.38 0.0
07 12:55 N 9 16.09 Fair CLR 19.9 12.4 19.9 14.6 62% 76.43 0.0
07 12:35 N 17 16.09 Fair CLR 19.3 12 63% 76.38 0.0
07 12:15 NE 17 16.09 Fair CLR 18.5 11.9 66% 76.38 0.0
07 11:55 N 15 16.09 Fair CLR 17.7 11.5 67% 76.4 0.0
07 11:35 N 11 16.09 Fair CLR 17.1 11.5 70% 76.43 0.0
07 11:15 N 11 16.09 Fair CLR 17 11.5 70% 76.4 0.0
07 10:55 N 11 16.09 Partly Cloudy SCT020 SCT039 17.1 11.7 71% 76.4 0.0
07 10:35 N 19 G 28 16.09 Partly Cloudy SCT020 16.7 11.1 70% 76.35 0.0
07 10:15 NE 22 16.09 Partly Cloudy SCT034 16.2 11.3 73% 76.35 0.0
07 09:55 NE 17 16.09 Overcast SCT018 OVC034 15.9 11.3 74% 76.43 0.0
07 09:35 N 17 16.09 Overcast BKN016 OVC034 15.4 11.3 77% 76.43 0.0
07 09:15 N 22 G 30 16.09 Overcast OVC016 14.9 11.2 79% 76.38 0.0
07 08:55 N 13 16.09 Overcast OVC014 15.1 11.7 80% 76.45 0.0
07 08:35 N 19 16.09 Overcast OVC012 14.7 11.8 83% 76.4 0.0
07 08:15 N 22 G 30 16.09 Overcast OVC012 15 12.3 84% 76.38 0.0
07 07:55 N 13 16.09 Overcast OVC012 14.8 12.2 85% 76.4 0.0
07 07:35 N 19 16.09 Overcast OVC012 14.7 12.1 85% 76.38 0.0
07 07:15 N 22 G 30 16.09 Overcast OVC012 14.8 12.2 85% 76.35 0.0
07 06:55 N 15 G 28 16.09 Overcast OVC014 14.9 12.2 16.5 14.9 84% 76.35 0.0
07 06:35 N 17 16.09 Overcast OVC014 15.2 12.6 85% 76.25 0.0
07 06:15 N 17 G 31 16.09 Overcast OVC014 15.4 12.9 85% 76.25 0.0
07 05:55 N 15 16.09 Overcast OVC010 15.8 13.5 86% 76.28 0.0
07 05:35 N 15 16.09 Overcast SCT010 OVC017 16.1 13.8 86% 76.25 0.0
07 05:15 N 11 16.09 Overcast OVC015 16.2 13.7 85% 76.25 0.0
07 04:55 NE 9 16.09 Overcast OVC013 16.1 13.5 85% 76.2 0.0
07 04:35 N 13 16.09 Overcast OVC009 16.2 14.1 87% 76.2 0.0
07 04:15 N 6 16.09 Overcast OVC009 16.2 14.3 89% 76.15 0.0
07 03:55 N 11 16.09 Overcast OVC009 16.1 14.3 89% 76.12 0.0
07 03:35 NE 7 16.09 Overcast OVC009 16.2 14.3 89% 76.15 0.0
07 03:15 N 9 16.09 Overcast OVC009 16.2 14.2 88% 76.17 0.0
07 02:55 N 17 G 30 16.09 Overcast OVC011 16.2 14.2 88% 76.2 0.0
07 02:35 NE 9 16.09 Overcast OVC011 16.2 14 87% 76.15 0.0
07 02:15 NE 17 16.09 Overcast OVC013 16.5 14 85% 76.17 0.0
07 01:55 NE 11 16.09 Overcast OVC013 16.5 14 85% 76.17 0.0
07 01:35 NE 11 16.09 Overcast OVC013 16.5 13.8 84% 76.17 0.0
07 01:15 N 13 16.09 Overcast OVC013 16.5 13.8 84% 76.2 0.0
07 00:55 N 19 16.09 Overcast OVC015 16.5 13.7 19 16.5 84% 76.17 0.0
07 00:35 N 13 16.09 Overcast OVC015 16.5 13.7 84% 76.23 0.0
07 00:15 N 20 16.09 Overcast BKN015 OVC020 16.5 13.6 83% 76.17 0.0
06 23:55 N 9 16.09 Overcast OVC015 16.5 13.7 84% 76.23 0.0
06 23:35 N 24 16.09 Overcast OVC015 16.6 13.6 83% 76.15 0.0
06 23:15 N 20 16.09 Overcast OVC015 16.7 13.7 83% 76.2 0.0
06 22:55 N 15 16.09 Overcast OVC017 16.7 13.6 82% 76.15 0.0
06 22:35 N 19 16.09 Overcast OVC017 17 13.7 81% 76.17 0.0
06 22:15 N 11 16.09 Overcast OVC015 17 13.8 82% 76.15 0.0
06 21:55 N 13 16.09 Overcast OVC015 17.1 13.8 81% 76.1 0.0
06 21:35 N 15 16.09 Overcast BKN015 OVC021 17.1 13.7 81% 76.1 0.0
06 21:15 N 15 16.09 Overcast OVC019 17.1 13.8 81% 76.05 0.0
06 20:55 N 15 G 28 16.09 Overcast OVC019 17.2 13.8 81% 76.05 0.0
06 20:35 N 17 16.09 Overcast OVC017 17.4 14 81% 76.02 0.0
06 20:15 N 17 16.09 Overcast OVC017 17.6 14.2 81% 76 0.0
06 19:55 N 11 16.09 Overcast OVC019 17.8 14.3 80% 75.97 0.0
06 19:35 N 11 16.09 Overcast OVC019 18 14.3 79% 75.95 0.0
06 19:15 N 22 16.09 Overcast OVC018 18.4 14.2 77% 75.95 0.0
06 18:55 N 15 16.09 Overcast OVC018 19 14.7 25.2 19 76% 75.92 0.0
06 18:35 N 17 G 28 16.09 Partly Cloudy SCT018 19.5 14.8 74% 75.9 0.0
06 17:55 N 20 G 26 16.09 Mostly Cloudy BKN021 21.1 15.7 71% 75.9 0.0
06 17:35 N 20 G 28 16.09 Partly Cloudy SCT021 SCT040 SCT050 21.1 15.7 71% 75.9 0.0
06 17:15 NW 22 16.09 Overcast BKN021 OVC040 21.2 16 72% 75.87 0.0
06 16:55 N 22 G 30 16.09 Overcast OVC021 21.8 16.3 71% 75.84 0.0
06 16:35 NW 22 G 31 16.09 Overcast OVC021 22.3 16.8 71% 75.84 0.0
06 16:15 NW 24 G 33 16.09 Overcast OVC021 22.8 17.6 73% 75.84 0.0
06 15:55 NW 22 16.09 Overcast OVC021 23.1 18.4 75% 75.84 0.0
06 15:35 Calm 16.09 Overcast OVC019 24 19.5 76% 25 75.84 0.0
06 15:15 N 7 16.09 Overcast OVC017 24.3 20 77% 25 75.84 0.0
06 14:55 NW 7 16.09 Partly Cloudy SCT015 25 20.1 74% 26 75.84 0.0
06 14:35 NE 7 16.09 Fair CLR 24 19.3 75% 25 75.82 0.0
06 14:15 E 9 16.09 Fair CLR 23.2 18.8 76% 75.84 0.0
06 13:55 NE 6 16.09 Fair CLR 22 18 78% 75.84 0.0
06 13:35 N 9 16.09 Fair CLR 21 17 78% 75.84 0.0
06 13:15 N 9 16.09 Mostly Cloudy BKN010 19.7 16.4 81% 75.9 0.0
06 12:55 N 13 16.09 Overcast OVC008 18.9 16.1 26 17.4 84% 75.92 0.0
06 12:35 NE 19 G 28 16.09 Overcast OVC008 18 15.8 87% 75.95 0.0
06 12:15 N 15 16.09 Overcast OVC008 17.4 15.5 89% 76 0.0
06 11:55 N 26 16.09 Overcast OVC010 18.6 16.6 88% 76.02 0.0
06 11:35 NW 17 16.09 Overcast BKN013 OVC023 19.8 17.3 86% 76 0.0
06 11:15 W 6 16.09 Overcast SCT016 BKN021 OVC026 25.7 22.7 84% 27 75.95 0.0
06 10:55 Calm 16.09 Overcast BKN014 BKN021 OVC060 25.7 22.4 82% 27 75.87 0.0
06 10:35 S 7 16.09 Overcast BKN014 BKN021 OVC060 25.8 22.7 83% 27 75.87 0.0
06 10:15 SW 6 16.09 Overcast BKN014 OVC019 25.6 22.9 85% 27 75.87 0.0
06 09:55 S 9 16.09 Overcast OVC012 25.1 22.7 87% 26 75.84 0.0
06 09:35 S 6 11.27 Overcast OVC012 25 22.9 88% 26 75.84 0.0
06 09:15 S 7 11.27 Overcast OVC010 24.5 23.1 92% 24 75.82 0.0
06 08:55 Calm 8.05 Light Drizzle OVC010 24.2 23.1 94% 24 75.82 0.0
06 08:35 Calm 8.05 Light Rain OVC010 24.1 23.2 95% 23 75.79 0.0
06 08:15 Calm 11.27 Rain BKN012 BKN016 OVC023 24.1 23 94% 23 75.79 0.0
06 07:55 Calm 11.27 Overcast BKN014 OVC024 24.1 22.9 93% 24 75.79 0.0
06 07:35 Calm 11.27 Rain BKN014 OVC019 24 22.5 91% 23 75.79 0.0
06 07:15 Calm 11.27 Overcast BKN015 OVC026 23.8 22.5 92% 75.79 0.0
06 06:55 S 6 16.09 Overcast BKN015 BKN024 OVC060 24 22.4 24.5 23.7 91% 24 75.77 0.0
06 06:35 S 6 16.09 Overcast BKN015 BKN019 OVC024 24 22.3 90% 24 75.77 0.0
06 06:15 S 6 16.09 Overcast BKN013 BKN020 OVC028 24.2 22.3 89% 24 75.77 0.0
06 05:55 S 6 16.09 Overcast SCT013 SCT022 OVC028 24.2 22.4 90% 24 75.74 0.0
06 05:35 S 11 16.09 Overcast OVC026 24.2 22.3 89% 24 75.72 0.0
06 05:15 S 9 16.09 Overcast SCT012 OVC024 24.2 22.3 89% 24 75.72 0.0
06 04:55 S 6 16.09 Overcast BKN014 OVC023 24.3 22.2 88% 24 75.69 0.0
06 04:35 S 7 16.09 Overcast SCT014 OVC021 24.3 22.2 88% 24 75.69 0.0
06 04:15 S 11 16.09 Overcast BKN012 OVC019 24.3 22.2 88% 24 75.69 0.0
06 03:55 S 13 16.09 Overcast BKN012 OVC019 24.3 22.2 88% 24 75.69 0.0
06 03:35 S 15 16.09 Overcast OVC012 24.4 22.2 88% 25 75.67 0.0
06 03:15 S 17 16.09 Overcast OVC012 24.2 22.1 88% 24 75.67 0.0
06 02:55 S 26 G 31 16.09 Overcast OVC012 24.2 22.2 89% 24 75.67 0.0
06 02:35 S 13 16.09 Overcast OVC012 24 22.2 90% 24 75.69 0.0
06 02:15 S 15 16.09 Mostly Cloudy BKN012 BKN016 23.8 22.2 91% 75.69 0.0
06 01:55 S 13 16.09 Mostly Cloudy BKN012 BKN016 23.8 22.2 91% 75.69 0.0
06 01:35 S 22 G 31 16.09 Partly Cloudy SCT012 23.9 22.1 90% 23 75.67 0.0
06 01:15 S 19 G 28 16.09 Partly Cloudy SCT012 24 22 89% 24 75.69 0.0
06 00:55 S 17 16.09 Partly Cloudy SCT014 24 22 27.7 24 89% 24 75.72 0.0
06 00:35 S 15 16.09 Partly Cloudy SCT014 24.1 22 88% 24 75.72 0.0
06 00:15 S 15 G 28 16.09 Partly Cloudy SCT014 24.3 22 87% 24 75.72 0.0
05 23:55 S 13 G 30 16.09 Partly Cloudy SCT014 24.5 22.1 87% 25 75.69 0.0
05 23:35 S 17 G 28 16.09 Partly Cloudy SCT016 24.6 22.1 86% 25 75.69 0.0
05 23:15 S 17 G 26 16.09 Partly Cloudy SCT016 24.8 22 84% 25 75.69 0.0
05 22:55 S 13 16.09 Partly Cloudy SCT047 25 22 83% 26 75.67 0.0
05 22:35 S 17 G 30 16.09 Mostly Cloudy BKN045 25.2 22 83% 26 75.67 0.0
05 22:15 S 17 16.09 Partly Cloudy SCT045 25.2 21.8 82% 26 75.64 0.0
05 21:55 S 19 16.09 Overcast OVC043 25.6 21.9 80% 27 75.62 0.0
05 21:35 S 17 16.09 Overcast OVC045 25.6 21.8 80% 27 75.59 0.0
05 21:15 S 13 16.09 Mostly Cloudy BKN045 25.6 22 81% 27 75.59 0.0
05 20:55 S 19 16.09 Partly Cloudy SCT043 25.8 22 80% 27 75.59 0.0
05 20:35 S 15 G 28 16.09 Fair CLR 26.1 21.8 77% 28 75.57 0.0
05 20:15 S 17 16.09 Fair CLR 26.3 22 77% 28 75.54 0.0
05 19:55 S 24 16.09 Fair CLR 26.5 21.8 75% 28 75.51 0.0
05 19:35 S 15 G 30 16.09 Fair CLR 26.8 22 75% 29 75.49 0.0
05 19:15 S 24 G 35 16.09 Fair CLR 27.3 22.1 73% 30 75.49 0.0
05 18:55 S 28 16.09 Fair CLR 27.7 22 29.8 27.1 71% 30 75.49 0.0
05 18:35 S 26 G 37 16.09 Partly Cloudy SCT033 SCT043 28.1 22 70% 31 75.46 0.0
05 18:15 S 20 16.09 Mostly Cloudy SCT031 BKN041 28.5 22.1 68% 31 75.49 0.0
05 17:55 S 22 G 33 16.09 Overcast BKN031 OVC041 29 22.2 67% 32 75.49 0.0
05 17:35 S 20 G 30 16.09 Overcast OVC033 29.4 22.1 65% 33 75.49 0.0
05 17:15 S 20 G 31 16.09 Overcast BKN033 OVC040 29.6 22.5 66% 33 75.49 0.0
05 16:55 S 15 G 30 16.09 Mostly Cloudy SCT030 SCT038 BKN044 29.4 22.6 67% 33 75.51 0.0
05 16:35 SW 22 G 31 16.09 Mostly Cloudy SCT032 BKN040 29.7 22.4 65% 33 75.54 0.0
05 16:15 Calm 16.09 Mostly Cloudy BKN032 BKN040 29.5 22.6 66% 33 75.54 0.0
05 15:55 SW 17 G 26 16.09 Overcast SCT029 BKN036 OVC042 28.4 22.3 70% 31 75.57 0.0
05 15:35 S 22 G 31 16.09 Mostly Cloudy SCT029 BKN038 28.5 22 68% 31 75.59 0.0
05 15:15 S 17 G 28 16.09 Overcast BKN029 OVC038 28.9 22.3 68% 32 75.59 0.0
05 14:55 S 17 G 30 16.09 Overcast BKN027 OVC035 28.5 21.9 68% 31 75.62 0.0
05 14:35 SW 15 G 26 16.09 Overcast BKN027 OVC039 28.3 22.2 70% 31 75.64 0.0
05 14:15 SW 13 G 30 16.09 Overcast BKN029 OVC037 28.1 21.9 69% 31 75.67 0.0
05 13:55 S 24 G 30 16.09 Overcast SCT027 OVC035 28.8 22.1 67% 32 75.67 0.0
05 13:35 SW 19 G 33 16.09 Overcast SCT025 OVC035 28.1 21.8 69% 31 75.67 0.0
05 13:15 S 20 G 31 16.09 Overcast BKN025 OVC035 27.3 21.6 71% 29 75.67 0.0
05 12:55 SW 20 G 33 16.09 Overcast SCT022 SCT027 OVC033 27.1 21.7 27.1 21.5 72% 29 75.69 0.0
05 12:35 SW 20 G 31 16.09 Overcast BKN020 BKN027 OVC033 26.5 21.5 74% 28 75.69 0.0
05 12:15 SW 20 16.09 Overcast OVC018 26.2 21.7 76% 28 75.72 0.0
05 11:55 S 26 G 33 16.09 Overcast BKN018 OVC028 26.1 21.7 77% 28 75.72 0.0
05 11:35 SW 26 G 35 16.09 Overcast OVC016 25.3 21.5 80% 26 75.72 0.0
05 11:15 S 22 G 31 16.09 Overcast OVC014 24.7 21.4 82% 25 75.72 0.0
05 10:55 S 20 G 26 16.09 Overcast OVC012 24.2 21.6 85% 24 75.74 0.0
05 10:35 Calm 11.27 Overcast OVC012 23.5 21.1 86% 75.74 0.0
05 10:15 S 19 G 31 16.09 Overcast OVC012 23.5 20.8 85% 75.72 0.0
05 09:55 S 22 G 31 16.09 Overcast OVC012 23.3 20.8 86% 75.72 0.0
05 09:35 S 15 G 35 16.09 Overcast OVC012 23.1 20.6 86% 75.72 0.0
05 09:15 S 20 G 26 16.09 Overcast OVC012 22.8 20.5 87% 75.69 0.0
05 08:55 S 19 G 28 16.09 Overcast OVC012 22.5 20.5 89% 75.69 0.0
05 08:35 S 19 G 28 16.09 Overcast OVC012 22.4 20.3 88% 75.69 0.0
05 08:15 S 19 16.09 Overcast OVC012 22.1 20.1 88% 75.67 0.0
05 07:55 S 17 16.09 Overcast OVC012 22 19.9 88% 75.67 0.0
05 07:35 S 17 16.09 Overcast BKN012 OVC021 21.8 19.8 88% 75.67 0.0
05 07:15 S 17 16.09 Overcast BKN012 OVC021 21.5 19.6 89% 75.64 0.0
05 06:55 S 20 G 26 16.09 Overcast BKN014 OVC021 21.5 19.4 21.5 20.7 88% 75.62 0.0
05 06:35 S 15 16.09 Overcast SCT014 OVC021 21.5 19.3 87% 75.64 0.0
05 06:15 S 19 G 28 16.09 Overcast BKN014 OVC021 21.5 19.3 87% 75.64 0.0
05 05:55 S 19 G 30 16.09 Overcast OVC016 21.5 19.3 87% 75.67 0.0
05 05:35 S 22 G 28 16.09 Overcast OVC018 21.5 19.3 87% 75.64 0.0
05 05:15 S 13 G 26 16.09 Overcast BKN013 OVC020 21.3 19.2 88% 75.64 0.0
05 04:55 S 17 G 30 16.09 Overcast OVC013 21.1 19.1 88% 75.64 0.0
05 04:35 S 15 G 26 16.09 Overcast OVC015 21 19 88% 75.67 0.0
05 04:15 S 13 16.09 Overcast OVC015 20.8 19 90% 75.67 0.0
05 03:55 S 17 16.09 Overcast OVC015 21 18.8 87% 75.67 0.0
05 03:35 S 15 G 26 16.09 Overcast OVC015 21 18.8 87% 75.69 0.0
05 03:15 S 15 16.09 Overcast OVC015 21 18.7 87% 75.72 0.0
05 02:55 S 11 16.09 Overcast OVC015 21 18.6 86% 75.72 0.0
05 02:35 S 11 16.09 Overcast OVC015 21 18.5 86% 75.74 0.0
05 02:15 S 19 G 26 16.09 Overcast OVC015 20.8 18.5 87% 75.74 0.0
05 01:55 S 11 16.09 Mostly Cloudy BKN015 21 18.2 84% 75.77 0.0
05 01:35 S 17 G 26 16.09 Partly Cloudy SCT017 21 18.2 84% 75.79 0.0
05 01:15 S 20 G 28 16.09 Partly Cloudy SCT017 21 18.1 84% 75.77 0.0
05 00:55 S 22 G 33 16.09 Partly Cloudy SCT017 21.2 18 25.6 21.1 82% 75.77 0.0
05 00:35 S 20 G 33 16.09 Partly Cloudy SCT019 21.5 18 81% 75.79 0.0
05 00:15 S 24 G 31 16.09 Partly Cloudy SCT019 21.6 18 80% 75.77 0.0
04 23:55 S 19 16.09 Fair CLR 21.7 18 80% 75.77 0.0
04 23:35 S 20 G 35 16.09 Fair CLR 22 18 78% 75.79 0.0
04 23:15 S 22 G 33 16.09 Fair CLR 22.2 17.8 76% 75.79 0.0
04 22:55 S 26 G 37 16.09 Fair CLR 22.5 18 76% 75.79 0.0
04 22:35 S 24 G 33 16.09 Fair CLR 22.8 18 74% 75.79 0.0
04 22:15 S 22 G 33 16.09 Fair CLR 23 18 74% 75.77 0.0
04 21:55 S 17 G 26 16.09 Fair CLR 23.1 18 73% 75.79 0.0
04 21:35 S 17 16.09 Fair CLR 23.4 18 72% 75.77 0.0
04 21:15 S 22 G 28 16.09 Partly Cloudy SCT045 23.6 18 71% 75.77 0.0
04 20:55 S 19 G 26 16.09 Mostly Cloudy BKN047 23.8 18 70% 75.74 0.0
04 20:35 S 17 G 28 16.09 Overcast OVC047 24.3 18 68% 25 75.74 0.0
04 20:15 S 20 G 30 16.09 Overcast OVC047 24.6 17.8 66% 26 75.74 0.0
04 19:55 S 22 G 31 16.09 Overcast OVC047 24.8 17.9 66% 26 75.72 0.0
04 19:35 S 24 G 35 16.09 Overcast OVC047 25.2 17.9 64% 26 75.74 0.0
04 19:15 S 22 16.09 Overcast OVC047 25.5 17.8 63% 26 75.74 0.0
04 18:55 S 22 16.09 Overcast OVC047 25.7 17.6 27.6 25.2 61% 27 75.77 0.0
04 18:35 Calm 16.09 Overcast OVC045 26.1 17.3 58% 27 75.77 0.0
04 18:15 S 19 G 28 16.09 Mostly Cloudy BKN045 26.9 17.6 57% 28 75.77 0.0
04 17:55 S 24 G 31 16.09 Mostly Cloudy BKN045 26.6 17.3 57% 27 75.79 0.0
04 17:35 S 24 G 33 16.09 Mostly Cloudy BKN045 26.4 17.1 57% 27 75.79 0.0
04 17:15 S 19 G 31 16.09 Partly Cloudy SCT043 27.1 17.5 56% 28 75.82 0.0
04 16:55 Calm 16.09 Partly Cloudy SCT043 26.4 17.1 57% 27 75.82 0.0
04 16:35 S 22 16.09 Mostly Cloudy BKN043 26.8 17 55% 28 75.84 0.0
04 16:15 Calm 16.09 Mostly Cloudy BKN043 27.5 17.3 54% 28 75.9 0.0
04 15:55 S 19 G 31 16.09 Mostly Cloudy BKN043 26.2 16.6 56% 27 75.92 0.0
04 15:35 S 20 G 31 16.09 Mostly Cloudy BKN045 26.7 16.8 55% 27 75.95 0.0
04 15:15 S 19 G 31 16.09 Mostly Cloudy BKN045 27 16.6 53% 28 75.97 0.0
04 14:35 S 17 G 30 16.09 Mostly Cloudy BKN045 26.5 16.2 53% 27 76.02 0.0
04 14:15 S 20 G 31 16.09 Overcast OVC045 26.5 16.2 53% 27 76.02 0.0
04 13:55 S 20 G 30 16.09 Overcast OVC045 26 15.8 53% 27 76.05 0.0
04 13:35 S 15 G 30 16.09 Mostly Cloudy BKN043 25.5 15.5 54% 26 76.07 0.0
Date Time (cdt) Wind (kph) Vis. (km) Weather Sky Cond. Air Dwpt Max. Min. Relative Humidity Wind Chill (°C) Heat Index (°C) altimeter (cm) sea level (mb) 1 hr 3 hr 6 hr
6 hour
Temperature (ºC) Pressure Precipitation (cm)